Temp: 9.1°C   Baro: 1013.4mb
  Wind: 10.1mph   Dir: SW (230°)
  Rain: 0.2mm (0.0mm/hr)
  Solar: 0W/m2  Hum: 90%
 
Cotswold Observatory Historical Data
Daily Summary for February 15, 2020 Units:  Both    English   Metric
Next Day »
Daily Weekly Monthly Yearly Custom
  High: Low: Average:
Temperature: 55.6 °F /  13.1 °C 51.6 °F /  10.9 °C 53.4 °F /  11.9 °C
Dew Point: 53.1 °F /  11.7 °C 49.8 °F /  9.9 °C 51.3 °F /  10.7 °C
Humidity: 94% 90% 92%
Wind Speed: 30mph /  48.3km/h - 11.1mph /  17.9km/h
Wind Gust: 39mph /  62.8km/h - -
Wind direction- - WSW
Pressure: 29.9 in /  1013.1 hPa 29.3 in /  992.8 hPa -
Precipitation: 0.31 in /  7.9 mm    
Historical Graphs
 
 
Tabular Data for February 15, 2020
Time Temperature Dew Point Pressure Wind direction Wind Speed Wind Gust Humidity Rainfall Rate (Hourly) solar
00:00 52 °F /  11.1 °C 50.4 °F /  10.2 °C 29.9in /  1013.1hPa SW 2mph /  3.2km/h 10mph /  16.1km/h 94% 0.03in /  0.8mm 0.00 W/m2
00:05 52 °F /  11.1 °C 50.4 °F /  10.2 °C 29.9in /  1013.1hPa SW 8.1mph /  13.0km/h 12mph /  19.3km/h 94% 0.03in /  0.8mm 0.00 W/m2
00:10 52 °F /  11.1 °C 50.4 °F /  10.2 °C 29.9in /  1013.1hPa SW 8.1mph /  13.0km/h 9mph /  14.5km/h 94% 0.03in /  0.8mm 0.00 W/m2
00:15 52 °F /  11.1 °C 50 °F /  10.0 °C 29.9in /  1013.1hPa SW 6.9mph /  11.1km/h 9mph /  14.5km/h 93% 0.02in /  0.5mm 0.00 W/m2
00:20 52 °F /  11.1 °C 50 °F /  10.0 °C 29.9in /  1013.1hPa SW 6.9mph /  11.1km/h 9mph /  14.5km/h 93% 0.02in /  0.5mm 0.00 W/m2
00:25 52.2 °F /  11.2 °C 50.2 °F /  10.1 °C 29.9in /  1013.1hPa SW 4mph /  6.4km/h 7mph /  11.3km/h 93% 0.01in /  0.3mm 0.00 W/m2
00:30 52.2 °F /  11.2 °C 50.2 °F /  10.1 °C 29.9in /  1013.1hPa WSW 4.9mph /  7.9km/h 8mph /  12.9km/h 93% 0in /  0.0mm 0.00 W/m2
00:35 52.2 °F /  11.2 °C 50.2 °F /  10.1 °C 29.9in /  1013.1hPa SW 6.9mph /  11.1km/h 8mph /  12.9km/h 93% 0in /  0.0mm 0.00 W/m2
00:40 52 °F /  11.1 °C 50 °F /  10.0 °C 29.9in /  1013.1hPa WSW 4.9mph /  7.9km/h 8mph /  12.9km/h 93% 0in /  0.0mm 0.00 W/m2
00:45 52.2 °F /  11.2 °C 50.5 °F /  10.3 °C 29.9in /  1013.1hPa WSW 6mph /  9.7km/h 10mph /  16.1km/h 94% 0in /  0.0mm 0.00 W/m2
00:50 52.2 °F /  11.2 °C 50.2 °F /  10.1 °C 29.9in /  1013.1hPa SW 4mph /  6.4km/h 11mph /  17.7km/h 93% 0in /  0.0mm 0.00 W/m2
00:55 52 °F /  11.1 °C 50 °F /  10.0 °C 29.9in /  1012.8hPa WSW 6mph /  9.7km/h 8mph /  12.9km/h 93% 0in /  0.0mm 0.00 W/m2
01:00 52 °F /  11.1 °C 50 °F /  10.0 °C 29.9in /  1012.8hPa SSW 4mph /  6.4km/h 13mph /  20.9km/h 93% 0in /  0.0mm 0.00 W/m2
01:05 52 °F /  11.1 °C 50 °F /  10.0 °C 29.9in /  1012.8hPa SW 6.9mph /  11.1km/h 12mph /  19.3km/h 93% 0in /  0.0mm 0.00 W/m2
01:10 52 °F /  11.1 °C 50 °F /  10.0 °C 29.9in /  1012.8hPa WSW 6mph /  9.7km/h 10mph /  16.1km/h 93% 0.01in /  0.3mm 0.00 W/m2
01:15 52 °F /  11.1 °C 50 °F /  10.0 °C 29.9in /  1012.4hPa West 8.9mph /  14.3km/h 14mph /  22.5km/h 93% 0.01in /  0.3mm 0.00 W/m2
01:20 51.8 °F /  11.0 °C 49.8 °F /  9.9 °C 29.9in /  1012.4hPa SW 8.9mph /  14.3km/h 12mph /  19.3km/h 93% 0.01in /  0.3mm 0.00 W/m2
01:25 51.8 °F /  11.0 °C 50.2 °F /  10.1 °C 29.9in /  1012.4hPa SW 4mph /  6.4km/h 12mph /  19.3km/h 94% 0.01in /  0.3mm 0.00 W/m2
01:30 51.8 °F /  11.0 °C 50.2 °F /  10.1 °C 29.9in /  1012.4hPa SW 2mph /  3.2km/h 10mph /  16.1km/h 94% 0.01in /  0.3mm 0.00 W/m2
01:35 51.8 °F /  11.0 °C 50.2 °F /  10.1 °C 29.9in /  1012.4hPa SSW 2.9mph /  4.7km/h 9mph /  14.5km/h 94% 0.01in /  0.3mm 0.00 W/m2
01:40 51.6 °F /  10.9 °C 50 °F /  10.0 °C 29.9in /  1012.4hPa SSW 0.9mph /  1.4km/h 5mph /  8.0km/h 94% 0.01in /  0.3mm 0.00 W/m2
01:45 51.6 °F /  10.9 °C 50 °F /  10.0 °C 29.9in /  1012.1hPa SW 4.9mph /  7.9km/h 12mph /  19.3km/h 94% 0.01in /  0.3mm 0.00 W/m2
01:50 51.6 °F /  10.9 °C 50 °F /  10.0 °C 29.9in /  1012.1hPa WSW 6.9mph /  11.1km/h 10mph /  16.1km/h 94% 0.01in /  0.3mm 0.00 W/m2
01:55 51.6 °F /  10.9 °C 50 °F /  10.0 °C 29.9in /  1012.1hPa WSW 6.9mph /  11.1km/h 9mph /  14.5km/h 94% 0.01in /  0.3mm 0.00 W/m2
02:00 51.6 °F /  10.9 °C 50 °F /  10.0 °C 29.9in /  1012.1hPa WSW 8.1mph /  13.0km/h 11mph /  17.7km/h 94% 0.01in /  0.3mm 0.00 W/m2
02:05 51.6 °F /  10.9 °C 50 °F /  10.0 °C 29.9in /  1012.1hPa WSW 2mph /  3.2km/h 10mph /  16.1km/h 94% 0.01in /  0.3mm 0.00 W/m2
02:10 51.6 °F /  10.9 °C 50 °F /  10.0 °C 29.9in /  1011.7hPa SSW 2mph /  3.2km/h 11mph /  17.7km/h 94% 0in /  0.0mm 0.00 W/m2
02:15 51.6 °F /  10.9 °C 50 °F /  10.0 °C 29.9in /  1011.7hPa SW 4mph /  6.4km/h 13mph /  20.9km/h 94% 0in /  0.0mm 0.00 W/m2
02:20 51.6 °F /  10.9 °C 50 °F /  10.0 °C 29.9in /  1011.7hPa WSW 6mph /  9.7km/h 10mph /  16.1km/h 94% 0in /  0.0mm 0.00 W/m2
02:25 51.6 °F /  10.9 °C 50 °F /  10.0 °C 29.9in /  1011.7hPa SW 2.9mph /  4.7km/h 8mph /  12.9km/h 94% 0in /  0.0mm 0.00 W/m2
02:30 51.6 °F /  10.9 °C 50 °F /  10.0 °C 29.9in /  1011.4hPa WSW 6mph /  9.7km/h 9mph /  14.5km/h 94% 0in /  0.0mm 0.00 W/m2
02:35 51.8 °F /  11.0 °C 50.2 °F /  10.1 °C 29.9in /  1011.4hPa NW 11mph /  17.7km/h 11mph /  17.7km/h 94% 0in /  0.0mm 0.00 W/m2
02:40 51.8 °F /  11.0 °C 50.2 °F /  10.1 °C 29.9in /  1011.4hPa SW 6.9mph /  11.1km/h 10mph /  16.1km/h 94% 0in /  0.0mm 0.00 W/m2
02:45 51.8 °F /  11.0 °C 50.2 °F /  10.1 °C 29.9in /  1011.1hPa SW 12.1mph /  19.5km/h 14mph /  22.5km/h 94% 0in /  0.0mm 0.00 W/m2
02:50 52 °F /  11.1 °C 50.4 °F /  10.2 °C 29.9in /  1011.1hPa SW 8.1mph /  13.0km/h 11mph /  17.7km/h 94% 0in /  0.0mm 0.00 W/m2
02:55 52 °F /  11.1 °C 50.4 °F /  10.2 °C 29.9in /  1011.1hPa SW 6mph /  9.7km/h 14mph /  22.5km/h 94% 0in /  0.0mm 0.00 W/m2
03:00 52 °F /  11.1 °C 50.4 °F /  10.2 °C 29.9in /  1011.1hPa SSW 4.9mph /  7.9km/h 15mph /  24.1km/h 94% 0in /  0.0mm 0.00 W/m2
03:05 52 °F /  11.1 °C 50.4 °F /  10.2 °C 29.9in /  1011.1hPa SW 6mph /  9.7km/h 17mph /  27.4km/h 94% 0in /  0.0mm 0.00 W/m2
03:10 52.2 °F /  11.2 °C 50.5 °F /  10.3 °C 29.8in /  1010.7hPa SSW 8.1mph /  13.0km/h 14mph /  22.5km/h 94% 0in /  0.0mm 0.00 W/m2
03:15 52.2 °F /  11.2 °C 50.5 °F /  10.3 °C 29.8in /  1010.7hPa SW 12.1mph /  19.5km/h 13mph /  20.9km/h 94% 0in /  0.0mm 0.00 W/m2
03:20 52.2 °F /  11.2 °C 50.5 °F /  10.3 °C 29.8in /  1010.7hPa WSW 8.9mph /  14.3km/h 17mph /  27.4km/h 94% 0.01in /  0.3mm 0.00 W/m2
03:25 52.2 °F /  11.2 °C 50.5 °F /  10.3 °C 29.8in /  1010.7hPa SW 6mph /  9.7km/h 12mph /  19.3km/h 94% 0.01in /  0.3mm 0.00 W/m2
03:30 52.2 °F /  11.2 °C 50.5 °F /  10.3 °C 29.8in /  1010.4hPa SW 8.1mph /  13.0km/h 12mph /  19.3km/h 94% 0.01in /  0.3mm 0.00 W/m2
03:35 52.3 °F /  11.3 °C 50.7 °F /  10.4 °C 29.8in /  1010.4hPa SW 8.1mph /  13.0km/h 19mph /  30.6km/h 94% 0.01in /  0.3mm 0.00 W/m2
03:40 52.3 °F /  11.3 °C 50.7 °F /  10.4 °C 29.8in /  1010.0hPa SW 8.1mph /  13.0km/h 19mph /  30.6km/h 94% 0.01in /  0.3mm 0.00 W/m2
03:45 52.3 °F /  11.3 °C 50.7 °F /  10.4 °C 29.8in /  1010.0hPa SSW 4.9mph /  7.9km/h 16mph /  25.7km/h 94% 0.01in /  0.3mm 0.00 W/m2
03:50 52.3 °F /  11.3 °C 50.7 °F /  10.4 °C 29.8in /  1010.0hPa SSW 13mph /  20.9km/h 13mph /  20.9km/h 94% 0.01in /  0.3mm 0.00 W/m2
03:55 52.5 °F /  11.4 °C 50.9 °F /  10.5 °C 29.8in /  1010.0hPa SW 6mph /  9.7km/h 14mph /  22.5km/h 94% 0.01in /  0.3mm 0.00 W/m2
04:00 52.5 °F /  11.4 °C 50.9 °F /  10.5 °C 29.8in /  1010.0hPa WSW 10.1mph /  16.3km/h 18mph /  29.0km/h 94% 0.01in /  0.3mm 0.00 W/m2
04:05 52.5 °F /  11.4 °C 50.5 °F /  10.3 °C 29.8in /  1010.0hPa South 10.1mph /  16.3km/h 18mph /  29.0km/h 93% 0.01in /  0.3mm 0.00 W/m2
04:10 52.5 °F /  11.4 °C 50.5 °F /  10.3 °C 29.8in /  1009.7hPa SSW 13mph /  20.9km/h 17mph /  27.4km/h 93% 0.01in /  0.3mm 0.00 W/m2
04:15 52.7 °F /  11.5 °C 50.7 °F /  10.4 °C 29.8in /  1009.7hPa WSW 10.1mph /  16.3km/h 22mph /  35.4km/h 93% 0.01in /  0.3mm 0.00 W/m2
04:20 52.9 °F /  11.6 °C 50.9 °F /  10.5 °C 29.8in /  1009.7hPa WSW 10.1mph /  16.3km/h 19mph /  30.6km/h 93% 0in /  0.0mm 0.00 W/m2
04:25 52.9 °F /  11.6 °C 50.9 °F /  10.5 °C 29.8in /  1009.7hPa West 6.9mph /  11.1km/h 15mph /  24.1km/h 93% 0in /  0.0mm 0.00 W/m2
04:30 52.9 °F /  11.6 °C 50.9 °F /  10.5 °C 29.8in /  1009.7hPa SW 4.9mph /  7.9km/h 14mph /  22.5km/h 93% 0in /  0.0mm 0.00 W/m2
04:35 52.9 °F /  11.6 °C 50.9 °F /  10.5 °C 29.8in /  1009.7hPa SW 8.9mph /  14.3km/h 20mph /  32.2km/h 93% 0in /  0.0mm 0.00 W/m2
04:40 52.9 °F /  11.6 °C 50.9 °F /  10.5 °C 29.8in /  1009.4hPa SW 8.9mph /  14.3km/h 15mph /  24.1km/h 93% 0in /  0.0mm 0.00 W/m2
04:45 53.1 °F /  11.7 °C 51.1 °F /  10.6 °C 29.8in /  1009.4hPa SW 14.1mph /  22.7km/h 16mph /  25.7km/h 93% 0in /  0.0mm 0.00 W/m2
04:50 53.1 °F /  11.7 °C 51.1 °F /  10.6 °C 29.8in /  1009.4hPa SSW 4.9mph /  7.9km/h 23mph /  37.0km/h 93% 0in /  0.0mm 0.00 W/m2
04:55 53.1 °F /  11.7 °C 51.1 °F /  10.6 °C 29.8in /  1009.0hPa SW 15mph /  24.1km/h 15mph /  24.1km/h 93% 0in /  0.0mm 0.00 W/m2
05:00 52.9 °F /  11.6 °C 50.9 °F /  10.5 °C 29.8in /  1009.0hPa SW 14.1mph /  22.7km/h 16mph /  25.7km/h 93% 0in /  0.0mm 0.00 W/m2
05:05 52.9 °F /  11.6 °C 50.9 °F /  10.5 °C 29.8in /  1009.0hPa SSW 6mph /  9.7km/h 15mph /  24.1km/h 93% 0in /  0.0mm 0.00 W/m2
05:10 53.1 °F /  11.7 °C 51.1 °F /  10.6 °C 29.8in /  1009.0hPa SW 15mph /  24.1km/h 15mph /  24.1km/h 93% 0in /  0.0mm 0.00 W/m2
05:15 53.1 °F /  11.7 °C 50.7 °F /  10.4 °C 29.8in /  1009.0hPa West 10.1mph /  16.3km/h 16mph /  25.7km/h 92% 0in /  0.0mm 0.00 W/m2
05:20 53.1 °F /  11.7 °C 50.7 °F /  10.4 °C 29.8in /  1009.0hPa West 12.1mph /  19.5km/h 18mph /  29.0km/h 92% 0in /  0.0mm 0.00 W/m2
05:25 53.1 °F /  11.7 °C 50.7 °F /  10.4 °C 29.8in /  1008.7hPa SW 6mph /  9.7km/h 13mph /  20.9km/h 92% 0in /  0.0mm 0.00 W/m2
05:30 53.1 °F /  11.7 °C 50.7 °F /  10.4 °C 29.8in /  1009.0hPa WNW 8.1mph /  13.0km/h 19mph /  30.6km/h 92% 0in /  0.0mm 0.00 W/m2
05:35 53.1 °F /  11.7 °C 50.7 °F /  10.4 °C 29.8in /  1009.0hPa WSW 8.1mph /  13.0km/h 13mph /  20.9km/h 92% 0in /  0.0mm 0.00 W/m2
05:40 52.9 °F /  11.6 °C 50.9 °F /  10.5 °C 29.8in /  1009.0hPa WSW 4mph /  6.4km/h 11mph /  17.7km/h 93% 0in /  0.0mm 0.00 W/m2
05:45 52.9 °F /  11.6 °C 50.9 °F /  10.5 °C 29.8in /  1008.7hPa SW 12.1mph /  19.5km/h 13mph /  20.9km/h 93% 0in /  0.0mm 0.00 W/m2
05:50 53.1 °F /  11.7 °C 51.1 °F /  10.6 °C 29.8in /  1008.7hPa West 11mph /  17.7km/h 15mph /  24.1km/h 93% 0in /  0.0mm 0.00 W/m2
05:55 53.1 °F /  11.7 °C 51.1 °F /  10.6 °C 29.8in /  1008.7hPa West 4.9mph /  7.9km/h 16mph /  25.7km/h 93% 0in /  0.0mm 0.00 W/m2
06:00 53.1 °F /  11.7 °C 51.1 °F /  10.6 °C 29.8in /  1008.4hPa SW 11mph /  17.7km/h 21mph /  33.8km/h 93% 0in /  0.0mm 0.00 W/m2
06:05 53.2 °F /  11.8 °C 50.9 °F /  10.5 °C 29.8in /  1008.4hPa WSW 14.1mph /  22.7km/h 30mph /  48.3km/h 92% 0in /  0.0mm 0.00 W/m2
06:10 53.2 °F /  11.8 °C 50.9 °F /  10.5 °C 29.8in /  1008.4hPa SW 15mph /  24.1km/h 16mph /  25.7km/h 92% 0in /  0.0mm 0.00 W/m2
06:15 53.2 °F /  11.8 °C 50.9 °F /  10.5 °C 29.8in /  1008.0hPa WSW 17mph /  27.4km/h 21mph /  33.8km/h 92% 0in /  0.0mm 0.00 W/m2
06:20 53.1 °F /  11.7 °C 50.7 °F /  10.4 °C 29.8in /  1008.0hPa South 8.9mph /  14.3km/h 18mph /  29.0km/h 92% 0in /  0.0mm 0.00 W/m2
06:25 53.1 °F /  11.7 °C 50.7 °F /  10.4 °C 29.8in /  1007.7hPa WSW 16.1mph /  25.9km/h 21mph /  33.8km/h 92% 0in /  0.0mm 0.00 W/m2
06:30 53.1 °F /  11.7 °C 50.7 °F /  10.4 °C 29.8in /  1007.7hPa SSW 13mph /  20.9km/h 23mph /  37.0km/h 92% 0in /  0.0mm 0.00 W/m2
06:35 53.1 °F /  11.7 °C 50.7 °F /  10.4 °C 29.7in /  1007.3hPa WSW 17mph /  27.4km/h 19mph /  30.6km/h 92% 0in /  0.0mm 0.00 W/m2
06:40 53.1 °F /  11.7 °C 50.7 °F /  10.4 °C 29.7in /  1007.3hPa SW 8.9mph /  14.3km/h 24mph /  38.6km/h 92% 0.01in /  0.3mm 0.00 W/m2
06:45 53.1 °F /  11.7 °C 50.7 °F /  10.4 °C 29.7in /  1007.3hPa WSW 12.1mph /  19.5km/h 29mph /  46.7km/h 92% 0.01in /  0.3mm 0.00 W/m2
06:50 53.2 °F /  11.8 °C 50.9 °F /  10.5 °C 29.7in /  1007.3hPa SW 8.1mph /  13.0km/h 21mph /  33.8km/h 92% 0.01in /  0.3mm 0.00 W/m2
06:55 53.2 °F /  11.8 °C 50.9 °F /  10.5 °C 29.8in /  1007.7hPa SW 16.1mph /  25.9km/h 23mph /  37.0km/h 92% 0.01in /  0.3mm 0.00 W/m2
07:00 53.2 °F /  11.8 °C 50.9 °F /  10.5 °C 29.7in /  1007.3hPa WSW 16.1mph /  25.9km/h 26mph /  41.8km/h 92% 0.01in /  0.3mm 0.00 W/m2
07:05 53.2 °F /  11.8 °C 50.9 °F /  10.5 °C 29.8in /  1007.7hPa West 15mph /  24.1km/h 21mph /  33.8km/h 92% 0.01in /  0.3mm 0.00 W/m2
07:10 53.2 °F /  11.8 °C 50.9 °F /  10.5 °C 29.8in /  1007.7hPa WSW 13mph /  20.9km/h 24mph /  38.6km/h 92% 0.01in /  0.3mm 0.00 W/m2
07:15 53.2 °F /  11.8 °C 50.9 °F /  10.5 °C 29.7in /  1007.3hPa SSW 23.9mph /  38.5km/h 32mph /  51.5km/h 92% 0.01in /  0.3mm 0.00 W/m2
07:20 53.1 °F /  11.7 °C 50.7 °F /  10.4 °C 29.7in /  1007.3hPa WSW 16.1mph /  25.9km/h 24mph /  38.6km/h 92% 0.01in /  0.3mm 0.00 W/m2
07:25 53.1 °F /  11.7 °C 50.7 °F /  10.4 °C 29.7in /  1007.3hPa WSW 19.9mph /  32.0km/h 23mph /  37.0km/h 92% 0.01in /  0.3mm 0.00 W/m2
07:30 53.1 °F /  11.7 °C 50.7 °F /  10.4 °C 29.7in /  1007.3hPa SW 14.1mph /  22.7km/h 25mph /  40.2km/h 92% 0.01in /  0.3mm 0.00 W/m2
07:35 52.9 °F /  11.6 °C 50.5 °F /  10.3 °C 29.7in /  1007.0hPa SSW 12.1mph /  19.5km/h 18mph /  29.0km/h 92% 0.01in /  0.3mm 0.00 W/m2
07:40 52.9 °F /  11.6 °C 50.5 °F /  10.3 °C 29.7in /  1007.3hPa SSW 14.1mph /  22.7km/h 19mph /  30.6km/h 92% 0in /  0.0mm 0.00 W/m2
07:45 52.9 °F /  11.6 °C 50.5 °F /  10.3 °C 29.7in /  1007.0hPa WSW 6.9mph /  11.1km/h 24mph /  38.6km/h 92% 0in /  0.0mm 0.00 W/m2
07:50 52.9 °F /  11.6 °C 50.5 °F /  10.3 °C 29.7in /  1007.0hPa SW 4mph /  6.4km/h 25mph /  40.2km/h 92% 0in /  0.0mm 0.00 W/m2
07:55 52.9 °F /  11.6 °C 50.5 °F /  10.3 °C 29.7in /  1007.0hPa West 8.9mph /  14.3km/h 22mph /  35.4km/h 92% 0in /  0.0mm 5.00 W/m2
08:00 52.9 °F /  11.6 °C 50.5 °F /  10.3 °C 29.7in /  1007.0hPa WSW 10.1mph /  16.3km/h 28mph /  45.1km/h 92% 0in /  0.0mm 9.00 W/m2
08:05 53.1 °F /  11.7 °C 50.7 °F /  10.4 °C 29.7in /  1007.0hPa SSW 15mph /  24.1km/h 15mph /  24.1km/h 92% 0in /  0.0mm 16.00 W/m2
08:10 53.1 °F /  11.7 °C 50.5 °F /  10.3 °C 29.7in /  1007.0hPa WSW 13mph /  20.9km/h 22mph /  35.4km/h 91% 0in /  0.0mm 11.00 W/m2
08:15 53.1 °F /  11.7 °C 50.5 °F /  10.3 °C 29.7in /  1007.0hPa SW 16.1mph /  25.9km/h 18mph /  29.0km/h 91% 0in /  0.0mm 9.00 W/m2
08:20 53.1 °F /  11.7 °C 50.5 °F /  10.3 °C 29.7in /  1006.7hPa SW 4mph /  6.4km/h 19mph /  30.6km/h 91% 0in /  0.0mm 11.00 W/m2
08:25 53.1 °F /  11.7 °C 50.5 °F /  10.3 °C 29.7in /  1007.0hPa West 15mph /  24.1km/h 19mph /  30.6km/h 91% 0in /  0.0mm 9.00 W/m2
08:30 53.2 °F /  11.8 °C 50.7 °F /  10.4 °C 29.7in /  1007.0hPa WSW 21mph /  33.8km/h 34mph /  54.7km/h 91% 0in /  0.0mm 9.00 W/m2
08:35 53.2 °F /  11.8 °C 50.4 °F /  10.2 °C 29.7in /  1006.7hPa WSW 6.9mph /  11.1km/h 21mph /  33.8km/h 90% 0in /  0.0mm 11.00 W/m2
08:40 53.2 °F /  11.8 °C 50.4 °F /  10.2 °C 29.7in /  1006.3hPa SW 8.9mph /  14.3km/h 32mph /  51.5km/h 90% 0in /  0.0mm 12.00 W/m2
08:45 53.2 °F /  11.8 °C 50.4 °F /  10.2 °C 29.7in /  1006.3hPa WSW 8.9mph /  14.3km/h 24mph /  38.6km/h 90% 0in /  0.0mm 12.00 W/m2
08:50 53.2 °F /  11.8 °C 50.4 °F /  10.2 °C 29.7in /  1006.3hPa SW 6.9mph /  11.1km/h 17mph /  27.4km/h 90% 0in /  0.0mm 11.00 W/m2
08:55 53.2 °F /  11.8 °C 50.4 °F /  10.2 °C 29.7in /  1006.3hPa West 21mph /  33.8km/h 26mph /  41.8km/h 90% 0in /  0.0mm 14.00 W/m2
09:00 53.2 °F /  11.8 °C 50.4 °F /  10.2 °C 29.7in /  1006.3hPa SW 2.9mph /  4.7km/h 24mph /  38.6km/h 90% 0in /  0.0mm 19.00 W/m2
09:05 53.2 °F /  11.8 °C 50.4 °F /  10.2 °C 29.7in /  1006.3hPa South 6mph /  9.7km/h 12mph /  19.3km/h 90% 0in /  0.0mm 21.00 W/m2
09:10 53.1 °F /  11.7 °C 50.2 °F /  10.1 °C 29.7in /  1006.0hPa SW 8.1mph /  13.0km/h 15mph /  24.1km/h 90% 0in /  0.0mm 21.00 W/m2
09:15 53.1 °F /  11.7 °C 50.5 °F /  10.3 °C 29.7in /  1006.0hPa SW 8.9mph /  14.3km/h 16mph /  25.7km/h 91% 0in /  0.0mm 21.00 W/m2
09:20 53.1 °F /  11.7 °C 50.5 °F /  10.3 °C 29.7in /  1006.0hPa WSW 10.1mph /  16.3km/h 27mph /  43.4km/h 91% 0in /  0.0mm 25.00 W/m2
09:25 53.1 °F /  11.7 °C 50.5 °F /  10.3 °C 29.7in /  1006.0hPa SW 8.9mph /  14.3km/h 31mph /  49.9km/h 91% 0in /  0.0mm 25.00 W/m2
09:30 53.1 °F /  11.7 °C 50.5 °F /  10.3 °C 29.7in /  1006.0hPa West 8.9mph /  14.3km/h 21mph /  33.8km/h 91% 0in /  0.0mm 14.00 W/m2
09:35 53.1 °F /  11.7 °C 50.5 °F /  10.3 °C 29.7in /  1005.6hPa WSW 11mph /  17.7km/h 13mph /  20.9km/h 91% 0in /  0.0mm 12.00 W/m2
09:40 53.1 °F /  11.7 °C 50.5 °F /  10.3 °C 29.7in /  1005.6hPa SW 6mph /  9.7km/h 17mph /  27.4km/h 91% 0in /  0.0mm 16.00 W/m2
09:45 53.1 °F /  11.7 °C 50.5 °F /  10.3 °C 29.7in /  1005.6hPa SSW 8.9mph /  14.3km/h 24mph /  38.6km/h 91% 0in /  0.0mm 23.00 W/m2
09:50 53.1 °F /  11.7 °C 50.5 °F /  10.3 °C 29.7in /  1005.3hPa WSW 15mph /  24.1km/h 19mph /  30.6km/h 91% 0.01in /  0.3mm 26.00 W/m2
09:55 52.9 °F /  11.6 °C 50.5 °F /  10.3 °C 29.7in /  1005.0hPa West 8.9mph /  14.3km/h 20mph /  32.2km/h 92% 0.01in /  0.3mm 33.00 W/m2
10:00 52.9 °F /  11.6 °C 50.5 °F /  10.3 °C 29.7in /  1005.0hPa WSW 12.1mph /  19.5km/h 18mph /  29.0km/h 92% 0.01in /  0.3mm 39.00 W/m2
10:05 52.9 °F /  11.6 °C 50.5 °F /  10.3 °C 29.7in /  1005.0hPa SW 14.1mph /  22.7km/h 19mph /  30.6km/h 92% 0.01in /  0.3mm 42.00 W/m2
10:10 52.9 °F /  11.6 °C 50.5 °F /  10.3 °C 29.7in /  1005.0hPa WSW 21mph /  33.8km/h 23mph /  37.0km/h 92% 0.01in /  0.3mm 19.00 W/m2
10:15 53.1 °F /  11.7 °C 50.7 °F /  10.4 °C 29.7in /  1004.6hPa SSW 8.9mph /  14.3km/h 21mph /  33.8km/h 92% 0.01in /  0.3mm 28.00 W/m2
10:20 53.1 °F /  11.7 °C 50.7 °F /  10.4 °C 29.7in /  1004.6hPa SW 10.1mph /  16.3km/h 13mph /  20.9km/h 92% 0.01in /  0.3mm 30.00 W/m2
10:25 52.9 °F /  11.6 °C 50.5 °F /  10.3 °C 29.7in /  1004.6hPa SW 13mph /  20.9km/h 23mph /  37.0km/h 92% 0.02in /  0.5mm 18.00 W/m2
10:30 53.1 °F /  11.7 °C 50.7 °F /  10.4 °C 29.7in /  1004.6hPa SW 12.1mph /  19.5km/h 26mph /  41.8km/h 92% 0.02in /  0.5mm 32.00 W/m2
10:35 52.9 °F /  11.6 °C 50.5 °F /  10.3 °C 29.7in /  1004.6hPa SW 2.9mph /  4.7km/h 22mph /  35.4km/h 92% 0.02in /  0.5mm 21.00 W/m2
10:40 52.9 °F /  11.6 °C 50.5 °F /  10.3 °C 29.7in /  1004.6hPa WSW 6.9mph /  11.1km/h 23mph /  37.0km/h 92% 0.03in /  0.8mm 33.00 W/m2
10:45 52.9 °F /  11.6 °C 50.5 °F /  10.3 °C 29.7in /  1004.6hPa WSW 10.1mph /  16.3km/h 25mph /  40.2km/h 92% 0.03in /  0.8mm 19.00 W/m2
10:50 53.1 °F /  11.7 °C 50.7 °F /  10.4 °C 29.7in /  1004.6hPa West 4mph /  6.4km/h 25mph /  40.2km/h 92% 0.02in /  0.5mm 26.00 W/m2
10:55 53.1 °F /  11.7 °C 50.7 °F /  10.4 °C 29.7in /  1004.3hPa SW 19.9mph /  32.0km/h 23mph /  37.0km/h 92% 0.02in /  0.5mm 21.00 W/m2
11:00 53.1 °F /  11.7 °C 50.7 °F /  10.4 °C 29.7in /  1004.6hPa West 13mph /  20.9km/h 20mph /  32.2km/h 92% 0.02in /  0.5mm 19.00 W/m2
11:05 53.1 °F /  11.7 °C 50.7 °F /  10.4 °C 29.7in /  1004.3hPa SW 8.1mph /  13.0km/h 33mph /  53.1km/h 92% 0.03in /  0.8mm 25.00 W/m2
11:10 53.1 °F /  11.7 °C 50.7 °F /  10.4 °C 29.7in /  1004.3hPa SW 10.1mph /  16.3km/h 28mph /  45.1km/h 92% 0.03in /  0.8mm 32.00 W/m2
11:15 53.1 °F /  11.7 °C 50.7 °F /  10.4 °C 29.7in /  1004.3hPa WSW 12.1mph /  19.5km/h 22mph /  35.4km/h 92% 0.03in /  0.8mm 21.00 W/m2
11:20 53.1 °F /  11.7 °C 50.7 °F /  10.4 °C 29.6in /  1003.9hPa West 17.9mph /  28.8km/h 19mph /  30.6km/h 92% 0.03in /  0.8mm 30.00 W/m2
11:25 53.1 °F /  11.7 °C 50.7 °F /  10.4 °C 29.6in /  1003.9hPa SW 8.1mph /  13.0km/h 17mph /  27.4km/h 92% 0.03in /  0.8mm 23.00 W/m2
11:30 53.1 °F /  11.7 °C 50.7 °F /  10.4 °C 29.6in /  1003.6hPa SW 16.1mph /  25.9km/h 16mph /  25.7km/h 92% 0.04in /  1.0mm 16.00 W/m2
11:35 53.1 °F /  11.7 °C 50.7 °F /  10.4 °C 29.6in /  1003.6hPa SW 11mph /  17.7km/h 29mph /  46.7km/h 92% 0.03in /  0.8mm 18.00 W/m2
11:40 53.1 °F /  11.7 °C 50.7 °F /  10.4 °C 29.6in /  1003.3hPa SSE 6.9mph /  11.1km/h 17mph /  27.4km/h 92% 0.02in /  0.5mm 19.00 W/m2
11:45 53.1 °F /  11.7 °C 50.7 °F /  10.4 °C 29.6in /  1003.3hPa WSW 8.9mph /  14.3km/h 17mph /  27.4km/h 92% 0.03in /  0.8mm 37.00 W/m2
11:50 53.2 °F /  11.8 °C 50.9 °F /  10.5 °C 29.6in /  1003.3hPa WNW 14.1mph /  22.7km/h 21mph /  33.8km/h 92% 0.03in /  0.8mm 21.00 W/m2
11:55 53.2 °F /  11.8 °C 50.7 °F /  10.4 °C 29.6in /  1002.9hPa WNW 11mph /  17.7km/h 17mph /  27.4km/h 91% 0.04in /  1.0mm 23.00 W/m2
12:00 53.2 °F /  11.8 °C 50.7 °F /  10.4 °C 29.6in /  1002.9hPa SW 21mph /  33.8km/h 21mph /  33.8km/h 91% 0.04in /  1.0mm 32.00 W/m2
12:05 53.2 °F /  11.8 °C 50.7 °F /  10.4 °C 29.6in /  1002.6hPa SSW 13mph /  20.9km/h 17mph /  27.4km/h 91% 0.04in /  1.0mm 32.00 W/m2
12:10 53.2 °F /  11.8 °C 50.7 °F /  10.4 °C 29.6in /  1002.6hPa West 10.1mph /  16.3km/h 20mph /  32.2km/h 91% 0.04in /  1.0mm 37.00 W/m2
12:15 53.2 °F /  11.8 °C 50.9 °F /  10.5 °C 29.6in /  1002.3hPa SW 6.9mph /  11.1km/h 24mph /  38.6km/h 92% 0.05in /  1.3mm 39.00 W/m2
12:20 53.2 °F /  11.8 °C 50.7 °F /  10.4 °C 29.6in /  1002.6hPa West 8.9mph /  14.3km/h 29mph /  46.7km/h 91% 0.05in /  1.3mm 39.00 W/m2
12:25 53.4 °F /  11.9 °C 50.9 °F /  10.5 °C 29.6in /  1002.3hPa West 8.9mph /  14.3km/h 20mph /  32.2km/h 91% 0.04in /  1.0mm 26.00 W/m2
12:30 53.2 °F /  11.8 °C 50.7 °F /  10.4 °C 29.6in /  1001.9hPa SW 15mph /  24.1km/h 24mph /  38.6km/h 91% 0.04in /  1.0mm 42.00 W/m2
12:35 53.4 °F /  11.9 °C 50.9 °F /  10.5 °C 29.6in /  1001.9hPa West 13mph /  20.9km/h 25mph /  40.2km/h 91% 0.04in /  1.0mm 51.00 W/m2
12:40 53.4 °F /  11.9 °C 50.9 °F /  10.5 °C 29.6in /  1001.6hPa WNW 11mph /  17.7km/h 20mph /  32.2km/h 91% 0.04in /  1.0mm 42.00 W/m2
12:45 53.4 °F /  11.9 °C 50.9 °F /  10.5 °C 29.6in /  1001.6hPa West 12.1mph /  19.5km/h 15mph /  24.1km/h 91% 0.03in /  0.8mm 30.00 W/m2
12:50 53.4 °F /  11.9 °C 50.9 °F /  10.5 °C 29.6in /  1001.2hPa WSW 11mph /  17.7km/h 34mph /  54.7km/h 91% 0.04in /  1.0mm 33.00 W/m2
12:55 53.4 °F /  11.9 °C 50.9 °F /  10.5 °C 29.6in /  1001.2hPa SW 28mph /  45.1km/h 31mph /  49.9km/h 91% 0.03in /  0.8mm 26.00 W/m2
13:00 53.4 °F /  11.9 °C 50.9 °F /  10.5 °C 29.6in /  1001.2hPa West 4mph /  6.4km/h 14mph /  22.5km/h 91% 0.02in /  0.5mm 16.00 W/m2
13:05 53.2 °F /  11.8 °C 50.7 °F /  10.4 °C 29.6in /  1000.9hPa West 16.1mph /  25.9km/h 22mph /  35.4km/h 91% 0.03in /  0.8mm 32.00 W/m2
13:10 53.2 °F /  11.8 °C 50.7 °F /  10.4 °C 29.6in /  1000.6hPa WSW 14.1mph /  22.7km/h 28mph /  45.1km/h 91% 0.04in /  1.0mm 19.00 W/m2
13:15 53.2 °F /  11.8 °C 50.7 °F /  10.4 °C 29.6in /  1000.6hPa WSW 13mph /  20.9km/h 27mph /  43.4km/h 91% 0.03in /  0.8mm 25.00 W/m2
13:20 53.2 °F /  11.8 °C 50.7 °F /  10.4 °C 29.6in /  1000.6hPa SW 28mph /  45.1km/h 28mph /  45.1km/h 91% 0.04in /  1.0mm 23.00 W/m2
13:25 53.2 °F /  11.8 °C 50.9 °F /  10.5 °C 29.6in /  1000.6hPa SW 6mph /  9.7km/h 22mph /  35.4km/h 92% 0.04in /  1.0mm 21.00 W/m2
13:30 53.2 °F /  11.8 °C 50.9 °F /  10.5 °C 29.6in /  1000.6hPa WSW 25.9mph /  41.7km/h 26mph /  41.8km/h 92% 0.04in /  1.0mm 16.00 W/m2
13:35 53.2 °F /  11.8 °C 50.7 °F /  10.4 °C 29.6in /  1000.6hPa West 2.9mph /  4.7km/h 26mph /  41.8km/h 91% 0.04in /  1.0mm 21.00 W/m2
13:40 53.2 °F /  11.8 °C 50.7 °F /  10.4 °C 29.5in /  1000.2hPa SW 8.9mph /  14.3km/h 24mph /  38.6km/h 91% 0.04in /  1.0mm 19.00 W/m2
13:45 53.2 °F /  11.8 °C 50.7 °F /  10.4 °C 29.5in /  1000.2hPa SW 8.9mph /  14.3km/h 28mph /  45.1km/h 91% 0.05in /  1.3mm 26.00 W/m2
13:50 53.4 °F /  11.9 °C 50.9 °F /  10.5 °C 29.6in /  1000.6hPa SE 4mph /  6.4km/h 25mph /  40.2km/h 91% 0.05in /  1.3mm 16.00 W/m2
13:55 53.2 °F /  11.8 °C 50.7 °F /  10.4 °C 29.5in /  1000.2hPa SW 10.1mph /  16.3km/h 20mph /  32.2km/h 91% 0.05in /  1.3mm 18.00 W/m2
14:00 53.2 °F /  11.8 °C 50.7 °F /  10.4 °C 29.5in /  999.9hPa SW 2.9mph /  4.7km/h 20mph /  32.2km/h 91% 0.06in /  1.5mm 12.00 W/m2
14:05 53.1 °F /  11.7 °C 50.5 °F /  10.3 °C 29.5in /  999.5hPa West 16.1mph /  25.9km/h 23mph /  37.0km/h 91% 0.06in /  1.5mm 16.00 W/m2
14:10 53.1 °F /  11.7 °C 50.7 °F /  10.4 °C 29.5in /  999.5hPa WSW 30mph /  48.3km/h 30mph /  48.3km/h 92% 0.05in /  1.3mm 14.00 W/m2
14:15 53.1 °F /  11.7 °C 50.7 °F /  10.4 °C 29.5in /  999.2hPa SSW 4.9mph /  7.9km/h 26mph /  41.8km/h 92% 0.06in /  1.5mm 14.00 W/m2
14:20 53.1 °F /  11.7 °C 50.7 °F /  10.4 °C 29.5in /  999.5hPa SW 6.9mph /  11.1km/h 34mph /  54.7km/h 92% 0.06in /  1.5mm 14.00 W/m2
14:25 53.2 °F /  11.8 °C 50.9 °F /  10.5 °C 29.5in /  998.9hPa SSW 6mph /  9.7km/h 24mph /  38.6km/h 92% 0.06in /  1.5mm 23.00 W/m2
14:30 53.2 °F /  11.8 °C 50.9 °F /  10.5 °C 29.5in /  998.9hPa WNW 16.1mph /  25.9km/h 20mph /  32.2km/h 92% 0.06in /  1.5mm 25.00 W/m2
14:35 53.2 °F /  11.8 °C 50.9 °F /  10.5 °C 29.5in /  998.9hPa WSW 11mph /  17.7km/h 29mph /  46.7km/h 92% 0.06in /  1.5mm 21.00 W/m2
14:40 53.2 °F /  11.8 °C 50.9 °F /  10.5 °C 29.5in /  998.5hPa WSW 25.9mph /  41.7km/h 37mph /  59.5km/h 92% 0.06in /  1.5mm 23.00 W/m2
14:45 53.4 °F /  11.9 °C 51.1 °F /  10.6 °C 29.5in /  998.5hPa WSW 12.1mph /  19.5km/h 32mph /  51.5km/h 92% 0.06in /  1.5mm 25.00 W/m2
14:50 53.6 °F /  12.0 °C 51.3 °F /  10.7 °C 29.5in /  998.2hPa South 6mph /  9.7km/h 34mph /  54.7km/h 92% 0.05in /  1.3mm 32.00 W/m2
14:55 53.6 °F /  12.0 °C 51.3 °F /  10.7 °C 29.5in /  997.9hPa SW 12.1mph /  19.5km/h 20mph /  32.2km/h 92% 0.05in /  1.3mm 23.00 W/m2
15:00 53.6 °F /  12.0 °C 51.3 °F /  10.7 °C 29.5in /  997.9hPa SW 6.9mph /  11.1km/h 18mph /  29.0km/h 92% 0.04in /  1.0mm 9.00 W/m2
15:05 53.8 °F /  12.1 °C 51.4 °F /  10.8 °C 29.5in /  997.5hPa SSW 12.1mph /  19.5km/h 31mph /  49.9km/h 92% 0.04in /  1.0mm 18.00 W/m2
15:10 54 °F /  12.2 °C 51.4 °F /  10.8 °C 29.5in /  997.5hPa West 10.1mph /  16.3km/h 29mph /  46.7km/h 91% 0.04in /  1.0mm 7.00 W/m2
15:15 54 °F /  12.2 °C 51.4 °F /  10.8 °C 29.5in /  997.9hPa SW 17mph /  27.4km/h 27mph /  43.4km/h 91% 0.04in /  1.0mm 14.00 W/m2
15:20 54 °F /  12.2 °C 51.4 °F /  10.8 °C 29.5in /  997.2hPa WSW 12.1mph /  19.5km/h 27mph /  43.4km/h 91% 0.03in /  0.8mm 11.00 W/m2
15:25 54 °F /  12.2 °C 51.4 °F /  10.8 °C 29.5in /  997.5hPa SW 19.9mph /  32.0km/h 32mph /  51.5km/h 91% 0.02in /  0.5mm 14.00 W/m2
15:30 54.1 °F /  12.3 °C 51.6 °F /  10.9 °C 29.4in /  996.8hPa WSW 19.9mph /  32.0km/h 32mph /  51.5km/h 91% 0.02in /  0.5mm 14.00 W/m2
15:35 54.1 °F /  12.3 °C 51.6 °F /  10.9 °C 29.4in /  996.8hPa SSW 6.9mph /  11.1km/h 24mph /  38.6km/h 91% 0.02in /  0.5mm 30.00 W/m2
15:40 54.1 °F /  12.3 °C 51.6 °F /  10.9 °C 29.4in /  996.5hPa West 17mph /  27.4km/h 25mph /  40.2km/h 91% 0.02in /  0.5mm 18.00 W/m2
15:45 54.1 °F /  12.3 °C 51.6 °F /  10.9 °C 29.4in /  996.8hPa SW 11mph /  17.7km/h 30mph /  48.3km/h 91% 0.02in /  0.5mm 21.00 W/m2
15:50 54.1 °F /  12.3 °C 51.6 °F /  10.9 °C 29.4in /  996.8hPa West 29.1mph /  46.8km/h 29mph /  46.7km/h 91% 0.02in /  0.5mm 12.00 W/m2
15:55 54.1 °F /  12.3 °C 51.6 °F /  10.9 °C 29.4in /  996.8hPa West 6.9mph /  11.1km/h 38mph /  61.1km/h 91% 0.02in /  0.5mm 16.00 W/m2
16:00 54 °F /  12.2 °C 51.4 °F /  10.8 °C 29.4in /  996.5hPa West 16.1mph /  25.9km/h 21mph /  33.8km/h 91% 0.02in /  0.5mm 16.00 W/m2
16:05 54 °F /  12.2 °C 51.4 °F /  10.8 °C 29.4in /  996.2hPa SW 28mph /  45.1km/h 28mph /  45.1km/h 91% 0.02in /  0.5mm 12.00 W/m2
16:10 54.1 °F /  12.3 °C 51.6 °F /  10.9 °C 29.4in /  996.5hPa West 21mph /  33.8km/h 28mph /  45.1km/h 91% 0.02in /  0.5mm 9.00 W/m2
16:15 54.1 °F /  12.3 °C 51.6 °F /  10.9 °C 29.4in /  996.2hPa West 15mph /  24.1km/h 34mph /  54.7km/h 91% 0.01in /  0.3mm 5.00 W/m2
16:20 54.1 °F /  12.3 °C 51.6 °F /  10.9 °C 29.4in /  996.2hPa SSW 11mph /  17.7km/h 33mph /  53.1km/h 91% 0.01in /  0.3mm 7.00 W/m2
16:25 54 °F /  12.2 °C 51.4 °F /  10.8 °C 29.4in /  996.2hPa WSW 25.9mph /  41.7km/h 29mph /  46.7km/h 91% 0.01in /  0.3mm 5.00 W/m2
16:30 53.8 °F /  12.1 °C 51.3 °F /  10.7 °C 29.4in /  996.2hPa WSW 25.1mph /  40.4km/h 39mph /  62.8km/h 91% 0.02in /  0.5mm 5.00 W/m2
16:35 53.8 °F /  12.1 °C 51.3 °F /  10.7 °C 29.4in /  995.8hPa SW 21.9mph /  35.2km/h 34mph /  54.7km/h 91% 0.02in /  0.5mm 5.00 W/m2
16:40 53.8 °F /  12.1 °C 51.3 °F /  10.7 °C 29.4in /  995.8hPa SSW 17.9mph /  28.8km/h 30mph /  48.3km/h 91% 0.02in /  0.5mm 7.00 W/m2
16:45 53.8 °F /  12.1 °C 51.3 °F /  10.7 °C 29.4in /  996.2hPa WSW 19.9mph /  32.0km/h 36mph /  57.9km/h 91% 0.02in /  0.5mm 0.00 W/m2
16:50 53.8 °F /  12.1 °C 51.3 °F /  10.7 °C 29.4in /  996.2hPa West 21.9mph /  35.2km/h 30mph /  48.3km/h 91% 0.01in /  0.3mm 0.00 W/m2
16:55 53.8 °F /  12.1 °C 51.3 °F /  10.7 °C 29.4in /  996.2hPa NW 16.1mph /  25.9km/h 30mph /  48.3km/h 91% 0.01in /  0.3mm 0.00 W/m2
17:00 53.8 °F /  12.1 °C 51.3 °F /  10.7 °C 29.4in /  995.8hPa West 15mph /  24.1km/h 26mph /  41.8km/h 91% 0.01in /  0.3mm 0.00 W/m2
17:05 53.8 °F /  12.1 °C 51.3 °F /  10.7 °C 29.4in /  995.8hPa SW 21mph /  33.8km/h 21mph /  33.8km/h 91% 0.01in /  0.3mm 0.00 W/m2
17:10 53.8 °F /  12.1 °C 51.4 °F /  10.8 °C 29.4in /  995.8hPa SSW 11mph /  17.7km/h 28mph /  45.1km/h 92% 0.01in /  0.3mm 0.00 W/m2
17:15 53.8 °F /  12.1 °C 51.4 °F /  10.8 °C 29.4in /  996.2hPa WSW 8.9mph /  14.3km/h 28mph /  45.1km/h 92% 0.01in /  0.3mm 0.00 W/m2
17:20 53.8 °F /  12.1 °C 51.4 °F /  10.8 °C 29.4in /  995.8hPa SW 12.1mph /  19.5km/h 20mph /  32.2km/h 92% 0.01in /  0.3mm 0.00 W/m2
17:25 53.8 °F /  12.1 °C 51.4 °F /  10.8 °C 29.4in /  995.8hPa WSW 6mph /  9.7km/h 26mph /  41.8km/h 92% 0.01in /  0.3mm 0.00 W/m2
17:30 54 °F /  12.2 °C 51.6 °F /  10.9 °C 29.4in /  995.8hPa SSW 23.9mph /  38.5km/h 25mph /  40.2km/h 92% 0in /  0.0mm 0.00 W/m2
17:35 54 °F /  12.2 °C 51.6 °F /  10.9 °C 29.4in /  995.8hPa SSW 8.1mph /  13.0km/h 27mph /  43.4km/h 92% 0in /  0.0mm 0.00 W/m2
17:40 54 °F /  12.2 °C 51.6 °F /  10.9 °C 29.4in /  995.5hPa WSW 4mph /  6.4km/h 29mph /  46.7km/h 92% 0in /  0.0mm 0.00 W/m2
17:45 54 °F /  12.2 °C 51.6 °F /  10.9 °C 29.4in /  995.8hPa SW 21mph /  33.8km/h 28mph /  45.1km/h 92% 0in /  0.0mm 0.00 W/m2
17:50 54 °F /  12.2 °C 51.6 °F /  10.9 °C 29.4in /  995.8hPa SW 19mph /  30.6km/h 27mph /  43.4km/h 92% 0in /  0.0mm 0.00 W/m2
17:55 54 °F /  12.2 °C 51.6 °F /  10.9 °C 29.4in /  995.8hPa SW 15mph /  24.1km/h 22mph /  35.4km/h 92% 0in /  0.0mm 0.00 W/m2
18:00 54 °F /  12.2 °C 51.6 °F /  10.9 °C 29.4in /  995.8hPa WSW 11mph /  17.7km/h 27mph /  43.4km/h 92% 0.01in /  0.3mm 0.00 W/m2
18:05 54 °F /  12.2 °C 51.6 °F /  10.9 °C 29.4in /  995.8hPa SW 17.9mph /  28.8km/h 30mph /  48.3km/h 92% 0.01in /  0.3mm 0.00 W/m2
18:10 54.1 °F /  12.3 °C 51.8 °F /  11.0 °C 29.4in /  995.8hPa SW 13mph /  20.9km/h 20mph /  32.2km/h 92% 0.01in /  0.3mm 0.00 W/m2
18:15 54 °F /  12.2 °C 51.6 °F /  10.9 °C 29.4in /  995.8hPa West 19mph /  30.6km/h 26mph /  41.8km/h 92% 0.01in /  0.3mm 0.00 W/m2
18:20 54.1 °F /  12.3 °C 51.8 °F /  11.0 °C 29.4in /  995.8hPa West 8.9mph /  14.3km/h 24mph /  38.6km/h 92% 0.01in /  0.3mm 0.00 W/m2
18:25 54.3 °F /  12.4 °C 52 °F /  11.1 °C 29.4in /  996.2hPa SSW 17.9mph /  28.8km/h 37mph /  59.5km/h 92% 0.01in /  0.3mm 0.00 W/m2
18:30 54.3 °F /  12.4 °C 52 °F /  11.1 °C 29.4in /  996.2hPa WSW 12.1mph /  19.5km/h 28mph /  45.1km/h 92% 0.01in /  0.3mm 0.00 W/m2
18:35 54.3 °F /  12.4 °C 52 °F /  11.1 °C 29.4in /  996.2hPa SW 4mph /  6.4km/h 35mph /  56.3km/h 92% 0.01in /  0.3mm 0.00 W/m2
18:40 54.3 °F /  12.4 °C 52 °F /  11.1 °C 29.4in /  996.5hPa SSW 8.1mph /  13.0km/h 18mph /  29.0km/h 92% 0.01in /  0.3mm 0.00 W/m2
18:45 54.3 °F /  12.4 °C 52.3 °F /  11.3 °C 29.4in /  996.5hPa West 12.1mph /  19.5km/h 21mph /  33.8km/h 93% 0.01in /  0.3mm 0.00 W/m2
18:50 54.5 °F /  12.5 °C 52.5 °F /  11.4 °C 29.4in /  996.2hPa WSW 10.1mph /  16.3km/h 20mph /  32.2km/h 93% 0.01in /  0.3mm 0.00 W/m2
18:55 54.5 °F /  12.5 °C 52.5 °F /  11.4 °C 29.4in /  996.2hPa South 13mph /  20.9km/h 22mph /  35.4km/h 93% 0.01in /  0.3mm 0.00 W/m2
19:00 54.7 °F /  12.6 °C 52.7 °F /  11.5 °C 29.4in /  996.5hPa WNW 11mph /  17.7km/h 20mph /  32.2km/h 93% 0.01in /  0.3mm 0.00 W/m2
19:05 54.7 °F /  12.6 °C 52.7 °F /  11.5 °C 29.4in /  996.5hPa SW 8.1mph /  13.0km/h 22mph /  35.4km/h 93% 0.01in /  0.3mm 0.00 W/m2
19:10 54.7 °F /  12.6 °C 52.7 °F /  11.5 °C 29.4in /  996.2hPa SW 11mph /  17.7km/h 29mph /  46.7km/h 93% 0.01in /  0.3mm 0.00 W/m2
19:15 54.7 °F /  12.6 °C 52.7 °F /  11.5 °C 29.4in /  996.5hPa NW 4mph /  6.4km/h 18mph /  29.0km/h 93% 0.01in /  0.3mm 0.00 W/m2
19:20 54.7 °F /  12.6 °C 52.7 °F /  11.5 °C 29.4in /  996.5hPa WSW 17mph /  27.4km/h 17mph /  27.4km/h 93% 0.01in /  0.3mm 0.00 W/m2
19:25 54.7 °F /  12.6 °C 52.7 °F /  11.5 °C 29.4in /  996.2hPa SW 13mph /  20.9km/h 17mph /  27.4km/h 93% 0.01in /  0.3mm 0.00 W/m2
19:30 54.7 °F /  12.6 °C 52.7 °F /  11.5 °C 29.4in /  996.5hPa WSW 12.1mph /  19.5km/h 21mph /  33.8km/h 93% 0.01in /  0.3mm 0.00 W/m2
19:35 54.7 °F /  12.6 °C 52.7 °F /  11.5 °C 29.4in /  996.5hPa WSW 16.1mph /  25.9km/h 23mph /  37.0km/h 93% 0.01in /  0.3mm 0.00 W/m2
19:40 54.7 °F /  12.6 °C 52.7 °F /  11.5 °C 29.4in /  996.8hPa WNW 21mph /  33.8km/h 21mph /  33.8km/h 93% 0.01in /  0.3mm 0.00 W/m2
19:45 54.9 °F /  12.7 °C 52.9 °F /  11.6 °C 29.4in /  996.5hPa SW 8.9mph /  14.3km/h 18mph /  29.0km/h 93% 0.01in /  0.3mm 0.00 W/m2
19:50 54.9 °F /  12.7 °C 52.9 °F /  11.6 °C 29.4in /  996.2hPa SW 10.1mph /  16.3km/h 18mph /  29.0km/h 93% 0.01in /  0.3mm 0.00 W/m2
19:55 54.9 °F /  12.7 °C 52.9 °F /  11.6 °C 29.4in /  996.5hPa SW 8.9mph /  14.3km/h 13mph /  20.9km/h 93% 0.01in /  0.3mm 0.00 W/m2
20:00 55 °F /  12.8 °C 53.1 °F /  11.7 °C 29.4in /  996.5hPa WSW 8.9mph /  14.3km/h 17mph /  27.4km/h 93% 0in /  0.0mm 0.00 W/m2
20:05 55.2 °F /  12.9 °C 52.9 °F /  11.6 °C 29.4in /  996.5hPa WSW 6.9mph /  11.1km/h 19mph /  30.6km/h 92% 0in /  0.0mm 0.00 W/m2
20:10 55.4 °F /  13.0 °C 53.1 °F /  11.7 °C 29.4in /  996.5hPa WSW 8.9mph /  14.3km/h 18mph /  29.0km/h 92% 0.01in /  0.3mm 0.00 W/m2
20:15 55.6 °F /  13.1 °C 53.1 °F /  11.7 °C 29.4in /  996.5hPa SW 6.9mph /  11.1km/h 18mph /  29.0km/h 91% 0.01in /  0.3mm 0.00 W/m2
20:20 55.6 °F /  13.1 °C 53.1 °F /  11.7 °C 29.4in /  996.8hPa SSW 6mph /  9.7km/h 23mph /  37.0km/h 91% 0.01in /  0.3mm 0.00 W/m2
20:25 55.6 °F /  13.1 °C 53.1 °F /  11.7 °C 29.4in /  996.8hPa WSW 10.1mph /  16.3km/h 21mph /  33.8km/h 91% 0.01in /  0.3mm 0.00 W/m2
20:30 55.6 °F /  13.1 °C 52.7 °F /  11.5 °C 29.4in /  996.8hPa SW 16.1mph /  25.9km/h 16mph /  25.7km/h 90% 0.01in /  0.3mm 0.00 W/m2
20:35 55.6 °F /  13.1 °C 52.7 °F /  11.5 °C 29.4in /  996.8hPa SSW 10.1mph /  16.3km/h 19mph /  30.6km/h 90% 0.01in /  0.3mm 0.00 W/m2
20:40 55.6 °F /  13.1 °C 52.7 °F /  11.5 °C 29.4in /  996.5hPa WSW 4mph /  6.4km/h 12mph /  19.3km/h 90% 0.01in /  0.3mm 0.00 W/m2
20:45 55.4 °F /  13.0 °C 52.9 °F /  11.6 °C 29.4in /  996.5hPa West 10.1mph /  16.3km/h 19mph /  30.6km/h 91% 0.01in /  0.3mm 0.00 W/m2
20:50 55.2 °F /  12.9 °C 52.7 °F /  11.5 °C 29.4in /  996.5hPa WSW 4mph /  6.4km/h 14mph /  22.5km/h 91% 0.01in /  0.3mm 0.00 W/m2
20:55 55.4 °F /  13.0 °C 52.9 °F /  11.6 °C 29.4in /  996.5hPa SW 4.9mph /  7.9km/h 16mph /  25.7km/h 91% 0.01in /  0.3mm 0.00 W/m2
21:00 55.2 °F /  12.9 °C 52.7 °F /  11.5 °C 29.4in /  996.2hPa South 6mph /  9.7km/h 15mph /  24.1km/h 91% 0.01in /  0.3mm 0.00 W/m2
21:05 55.2 °F /  12.9 °C 52.7 °F /  11.5 °C 29.4in /  996.2hPa SW 8.9mph /  14.3km/h 15mph /  24.1km/h 91% 0.01in /  0.3mm 0.00 W/m2
21:10 55.2 °F /  12.9 °C 52.7 °F /  11.5 °C 29.4in /  996.2hPa SSW 6mph /  9.7km/h 12mph /  19.3km/h 91% 0in /  0.0mm 0.00 W/m2
21:15 55.2 °F /  12.9 °C 52.7 °F /  11.5 °C 29.4in /  995.8hPa West 12.1mph /  19.5km/h 14mph /  22.5km/h 91% 0in /  0.0mm 0.00 W/m2
21:20 55.2 °F /  12.9 °C 52.9 °F /  11.6 °C 29.4in /  995.8hPa WSW 12.1mph /  19.5km/h 19mph /  30.6km/h 92% 0in /  0.0mm 0.00 W/m2
21:25 55 °F /  12.8 °C 52.7 °F /  11.5 °C 29.4in /  995.8hPa West 10.1mph /  16.3km/h 16mph /  25.7km/h 92% 0.01in /  0.3mm 0.00 W/m2
21:30 55 °F /  12.8 °C 52.7 °F /  11.5 °C 29.4in /  995.8hPa SSW 10.1mph /  16.3km/h 21mph /  33.8km/h 92% 0.01in /  0.3mm 0.00 W/m2
21:35 54.9 °F /  12.7 °C 52.5 °F /  11.4 °C 29.4in /  995.5hPa SW 16.1mph /  25.9km/h 16mph /  25.7km/h 92% 0.01in /  0.3mm 0.00 W/m2
21:40 54.9 °F /  12.7 °C 52.5 °F /  11.4 °C 29.4in /  995.5hPa SSW 11mph /  17.7km/h 25mph /  40.2km/h 92% 0.02in /  0.5mm 0.00 W/m2
21:45 54.7 °F /  12.6 °C 52.7 °F /  11.5 °C 29.4in /  995.5hPa WSW 8.9mph /  14.3km/h 24mph /  38.6km/h 93% 0.02in /  0.5mm 0.00 W/m2
21:50 54.7 °F /  12.6 °C 52.7 °F /  11.5 °C 29.4in /  995.5hPa SSW 8.1mph /  13.0km/h 13mph /  20.9km/h 93% 0.02in /  0.5mm 0.00 W/m2
21:55 54.7 °F /  12.6 °C 52.7 °F /  11.5 °C 29.4in /  995.1hPa SW 8.9mph /  14.3km/h 23mph /  37.0km/h 93% 0.03in /  0.8mm 0.00 W/m2
22:00 54.7 °F /  12.6 °C 52.7 °F /  11.5 °C 29.4in /  995.1hPa SSE 2mph /  3.2km/h 21mph /  33.8km/h 93% 0.03in /  0.8mm 0.00 W/m2
22:05 54.7 °F /  12.6 °C 52.7 °F /  11.5 °C 29.4in /  995.1hPa SW 13mph /  20.9km/h 15mph /  24.1km/h 93% 0.03in /  0.8mm 0.00 W/m2
22:10 54.5 °F /  12.5 °C 52.5 °F /  11.4 °C 29.4in /  994.5hPa SSW 15mph /  24.1km/h 18mph /  29.0km/h 93% 0.03in /  0.8mm 0.00 W/m2
22:15 54.5 °F /  12.5 °C 52.5 °F /  11.4 °C 29.4in /  994.5hPa SSW 4mph /  6.4km/h 17mph /  27.4km/h 93% 0.03in /  0.8mm 0.00 W/m2
22:20 54.7 °F /  12.6 °C 52.7 °F /  11.5 °C 29.4in /  994.5hPa WSW 8.9mph /  14.3km/h 16mph /  25.7km/h 93% 0.03in /  0.8mm 0.00 W/m2
22:25 54.7 °F /  12.6 °C 52.7 °F /  11.5 °C 29.4in /  994.1hPa WSW 13mph /  20.9km/h 31mph /  49.9km/h 93% 0.02in /  0.5mm 0.00 W/m2
22:30 54.7 °F /  12.6 °C 52.3 °F /  11.3 °C 29.4in /  993.8hPa WSW 17.9mph /  28.8km/h 22mph /  35.4km/h 92% 0.02in /  0.5mm 0.00 W/m2
22:35 54.7 °F /  12.6 °C 52.3 °F /  11.3 °C 29.4in /  994.1hPa West 13mph /  20.9km/h 27mph /  43.4km/h 92% 0.03in /  0.8mm 0.00 W/m2
22:40 54.9 °F /  12.7 °C 52.5 °F /  11.4 °C 29.4in /  994.1hPa West 13mph /  20.9km/h 31mph /  49.9km/h 92% 0.02in /  0.5mm 0.00 W/m2
22:45 54.9 °F /  12.7 °C 52.5 °F /  11.4 °C 29.4in /  993.8hPa WSW 16.1mph /  25.9km/h 25mph /  40.2km/h 92% 0.02in /  0.5mm 0.00 W/m2
22:50 54.9 °F /  12.7 °C 52.5 °F /  11.4 °C 29.3in /  993.5hPa West 15mph /  24.1km/h 27mph /  43.4km/h 92% 0.02in /  0.5mm 0.00 W/m2
22:55 54.9 °F /  12.7 °C 52.5 °F /  11.4 °C 29.3in /  993.5hPa WSW 13mph /  20.9km/h 23mph /  37.0km/h 92% 0.02in /  0.5mm 0.00 W/m2
23:00 54.9 °F /  12.7 °C 52.5 °F /  11.4 °C 29.3in /  993.5hPa WSW 14.1mph /  22.7km/h 28mph /  45.1km/h 92% 0.01in /  0.3mm 0.00 W/m2
23:05 54.9 °F /  12.7 °C 52.5 °F /  11.4 °C 29.3in /  993.5hPa West 16.1mph /  25.9km/h 37mph /  59.5km/h 92% 0.01in /  0.3mm 0.00 W/m2
23:10 55 °F /  12.8 °C 52.7 °F /  11.5 °C 29.3in /  993.1hPa SW 10.1mph /  16.3km/h 30mph /  48.3km/h 92% 0.01in /  0.3mm 0.00 W/m2
23:15 55 °F /  12.8 °C 52.7 °F /  11.5 °C 29.3in /  992.8hPa SSW 10.1mph /  16.3km/h 23mph /  37.0km/h 92% 0.01in /  0.3mm 0.00 W/m2
23:20 55 °F /  12.8 °C 52.7 °F /  11.5 °C 29.3in /  993.1hPa WNW 10.1mph /  16.3km/h 25mph /  40.2km/h 92% 0.01in /  0.3mm 0.00 W/m2
23:25 55 °F /  12.8 °C 52.7 °F /  11.5 °C 29.3in /  993.1hPa SSW 6mph /  9.7km/h 29mph /  46.7km/h 92% 0.01in /  0.3mm 0.00 W/m2
23:30 55.2 °F /  12.9 °C 52.7 °F /  11.5 °C 29.3in /  993.1hPa WSW 8.1mph /  13.0km/h 31mph /  49.9km/h 91% 0.01in /  0.3mm 0.00 W/m2
23:35 55.2 °F /  12.9 °C 52.7 °F /  11.5 °C 29.3in /  992.8hPa SW 15mph /  24.1km/h 30mph /  48.3km/h 91% 0in /  0.0mm 0.00 W/m2
23:40 55 °F /  12.8 °C 52.5 °F /  11.4 °C 29.3in /  992.8hPa South 16.1mph /  25.9km/h 17mph /  27.4km/h 91% 0in /  0.0mm 0.00 W/m2
23:45 55 °F /  12.8 °C 52.7 °F /  11.5 °C 29.3in /  993.1hPa WNW 21mph /  33.8km/h 26mph /  41.8km/h 92% 0in /  0.0mm 0.00 W/m2
23:50 55 °F /  12.8 °C 52.7 °F /  11.5 °C 29.3in /  993.1hPa WNW 11mph /  17.7km/h 32mph /  51.5km/h 92% 0in /  0.0mm 0.00 W/m2
23:55 55 °F /  12.8 °C 52.7 °F /  11.5 °C 29.3in /  993.1hPa WNW 16.1mph /  25.9km/h 23mph /  37.0km/h 92% 0in /  0.0mm 0.00 W/m2